EXS78H EGNX-LCPH
Flight info
| Callsign | EXS78H |
|---|---|
| Flight time | N/A |
| Altitude | 33000 |
| Route | SAPCO Y53 DTY M605 BENSU Q70 BIG UL9 KONAN DCT KOK DCT DEMUL DCT PITES DCT KRH DCT UTABA DCT MOMUK DCT UMVEG DCT VEKEN DCT GORPA/N0458F350 DCT KUSIB DCT KOMAR DCT OKSIG DCT MARIL DCT NORPI DCT KEB DCT MEDUX UM867 KOGAT DCT ERANA UL737 TSL UN130 MES UL609 RDS UM601 EVENO M601 DASNI M32 TOBAL |
| Aircraft | B738/M-SDE2E3FGHIRWXY/LB1 |
Departure
| Time | 2026-05-04 12:28 |
|---|---|
| Airport | East Midlands Airport (EGNX) |
Arrival
| Time | N/A |
|---|---|
| Airport | Paphos International Airport (LCPH) |
| Time | Latitude | Longitude | Altitude | Speed | Heading |
|---|---|---|---|---|---|
| 2026-05-04 12:18 | 52.82728 | -1.32999 | 300 ft | 1 kts | 178° |
| 2026-05-04 12:18 | 52.82730 | -1.32999 | 300 ft | 2 kts | 178° |
| 2026-05-04 12:18 | 52.82756 | -1.33000 | 300 ft | 4 kts | 178° |
| 2026-05-04 12:18 | 52.82777 | -1.33000 | 300 ft | 4 kts | 200° |
| 2026-05-04 12:19 | 52.82793 | -1.32976 | 301 ft | 4 kts | 262° |
| 2026-05-04 12:19 | 52.82794 | -1.32934 | 300 ft | 4 kts | 268° |
| 2026-05-04 12:19 | 52.82794 | -1.32919 | 300 ft | 1 kts | 268° |
| 2026-05-04 12:23 | 52.82794 | -1.32920 | 300 ft | 0 kts | 268° |
| 2026-05-04 12:23 | 52.82794 | -1.32940 | 300 ft | 4 kts | 268° |
| 2026-05-04 12:24 | 52.82792 | -1.33020 | 300 ft | 10 kts | 268° |
| 2026-05-04 12:24 | 52.82802 | -1.33145 | 300 ft | 12 kts | 318° |
| 2026-05-04 12:24 | 52.82883 | -1.33164 | 300 ft | 12 kts | 359° |
| 2026-05-04 12:24 | 52.82923 | -1.33260 | 302 ft | 11 kts | 268° |
| 2026-05-04 12:25 | 52.82920 | -1.33390 | 306 ft | 12 kts | 268° |
| 2026-05-04 12:25 | 52.82918 | -1.33540 | 306 ft | 14 kts | 269° |
| 2026-05-04 12:25 | 52.82915 | -1.33694 | 304 ft | 13 kts | 268° |
| 2026-05-04 12:25 | 52.82912 | -1.33847 | 304 ft | 14 kts | 268° |
| 2026-05-04 12:26 | 52.82909 | -1.34034 | 301 ft | 18 kts | 268° |
| 2026-05-04 12:26 | 52.82906 | -1.34242 | 304 ft | 18 kts | 271° |
| 2026-05-04 12:26 | 52.82907 | -1.34442 | 304 ft | 17 kts | 268° |
| 2026-05-04 12:26 | 52.82903 | -1.34635 | 302 ft | 17 kts | 269° |
| 2026-05-04 12:27 | 52.82900 | -1.34822 | 305 ft | 16 kts | 268° |
| 2026-05-04 12:27 | 52.82957 | -1.34939 | 304 ft | 15 kts | 0° |
| 2026-05-04 12:27 | 52.83054 | -1.34905 | 305 ft | 15 kts | 53° |
| 2026-05-04 12:27 | 52.83066 | -1.34748 | 301 ft | 14 kts | 88° |
| 2026-05-04 12:28 | 52.83073 | -1.34334 | 301 ft | 73 kts | 88° |
| 2026-05-04 12:28 | 52.83095 | -1.33089 | 308 ft | 143 kts | 89° |
| 2026-05-04 12:28 | 52.83145 | -1.31173 | 653 ft | 177 kts | 87° |
| 2026-05-04 12:28 | 52.83095 | -1.29122 | 1690 ft | 177 kts | 96° |
| 2026-05-04 12:29 | 52.82948 | -1.27091 | 2647 ft | 188 kts | 95° |
| 2026-05-04 12:29 | 52.82780 | -1.24784 | 2918 ft | 215 kts | 101° |
| 2026-05-04 12:29 | 52.82156 | -1.22425 | 3202 ft | 233 kts | 126° |
| 2026-05-04 12:29 | 52.81076 | -1.20373 | 3683 ft | 241 kts | 133° |
| 2026-05-04 12:30 | 52.79859 | -1.18289 | 4000 ft | 260 kts | 134° |
| 2026-05-04 12:30 | 52.78575 | -1.16131 | 4683 ft | 265 kts | 136° |
| 2026-05-04 12:30 | 52.77002 | -1.14557 | 5370 ft | 269 kts | 169° |
| 2026-05-04 12:30 | 52.75168 | -1.14751 | 6057 ft | 268 kts | 204° |
| 2026-05-04 12:31 | 52.73713 | -1.16543 | 6848 ft | 264 kts | 226° |
| 2026-05-04 12:31 | 52.72382 | -1.18684 | 7428 ft | 271 kts | 223° |
| 2026-05-04 12:31 | 52.70953 | -1.20740 | 8154 ft | 272 kts | 220° |
| 2026-05-04 12:31 | 52.69490 | -1.22723 | 8792 ft | 272 kts | 219° |
| 2026-05-04 12:32 | 52.67907 | -1.24474 | 9252 ft | 279 kts | 200° |
| 2026-05-04 12:32 | 52.64031 | -1.24103 | 10479 ft | 291 kts | 171° |
| 2026-05-04 12:32 | 52.61967 | -1.23493 | 10644 ft | 312 kts | 171° |
| 2026-05-04 12:33 | 52.59758 | -1.22852 | 10815 ft | 333 kts | 171° |
| 2026-05-04 12:33 | 52.57402 | -1.22181 | 10969 ft | 353 kts | 171° |
| 2026-05-04 12:33 | 52.54948 | -1.21491 | 11111 ft | 371 kts | 171° |
| 2026-05-04 12:33 | 52.52356 | -1.20769 | 11425 ft | 382 kts | 171° |
| 2026-05-04 12:34 | 52.49717 | -1.20040 | 11991 ft | 386 kts | 171° |
| 2026-05-04 12:34 | 52.47058 | -1.19307 | 12640 ft | 387 kts | 171° |
| 2026-05-04 12:34 | 52.44385 | -1.18574 | 13225 ft | 391 kts | 171° |
| 2026-05-04 12:34 | 52.41693 | -1.17838 | 13801 ft | 395 kts | 171° |
| 2026-05-04 12:35 | 52.38968 | -1.17094 | 14320 ft | 398 kts | 171° |
| 2026-05-04 12:35 | 52.36230 | -1.16347 | 14860 ft | 400 kts | 171° |
| 2026-05-04 12:35 | 52.33470 | -1.15596 | 15384 ft | 403 kts | 171° |
| 2026-05-04 12:35 | 52.30697 | -1.14842 | 15909 ft | 405 kts | 171° |
| 2026-05-04 12:36 | 52.27899 | -1.14082 | 16414 ft | 408 kts | 171° |
| 2026-05-04 12:36 | 52.25117 | -1.13327 | 16944 ft | 410 kts | 171° |
| 2026-05-04 12:36 | 52.22298 | -1.12563 | 17489 ft | 412 kts | 171° |
| 2026-05-04 12:36 | 52.19454 | -1.11794 | 18004 ft | 415 kts | 171° |
| 2026-05-04 12:37 | 52.16596 | -1.11003 | 18463 ft | 418 kts | 170° |
| 2026-05-04 12:37 | 52.13723 | -1.10088 | 18885 ft | 420 kts | 169° |
| 2026-05-04 12:37 | 52.10856 | -1.09120 | 19323 ft | 422 kts | 169° |
| 2026-05-04 12:37 | 52.07969 | -1.08144 | 19752 ft | 424 kts | 169° |
| 2026-05-04 12:38 | 52.05062 | -1.07177 | 20165 ft | 426 kts | 169° |
| 2026-05-04 12:38 | 52.02177 | -1.06234 | 20571 ft | 428 kts | 169° |
| 2026-05-04 12:38 | 51.99239 | -1.05281 | 21009 ft | 430 kts | 169° |
| 2026-05-04 12:38 | 51.96300 | -1.04315 | 21400 ft | 432 kts | 169° |
| 2026-05-04 12:39 | 51.93350 | -1.03335 | 21768 ft | 434 kts | 169° |
| 2026-05-04 12:39 | 51.90379 | -1.02347 | 22133 ft | 437 kts | 169° |
| 2026-05-04 12:39 | 51.87394 | -1.01357 | 22505 ft | 439 kts | 169° |
| 2026-05-04 12:39 | 51.84391 | -1.00366 | 22870 ft | 441 kts | 169° |
| 2026-05-04 12:40 | 51.81411 | -0.99400 | 23214 ft | 443 kts | 169° |
| 2026-05-04 12:40 | 51.78372 | -0.98428 | 23535 ft | 446 kts | 169° |
| 2026-05-04 12:40 | 51.75325 | -0.97457 | 23780 ft | 449 kts | 169° |
| 2026-05-04 12:40 | 51.72255 | -0.96478 | 24063 ft | 450 kts | 170° |
| 2026-05-04 12:41 | 51.69178 | -0.95495 | 24337 ft | 452 kts | 170° |
| 2026-05-04 12:41 | 51.66076 | -0.94505 | 24631 ft | 453 kts | 170° |
| 2026-05-04 12:41 | 51.62987 | -0.93488 | 24936 ft | 454 kts | 167° |
| 2026-05-04 12:41 | 51.60064 | -0.91517 | 25173 ft | 461 kts | 148° |
| 2026-05-04 12:42 | 51.57624 | -0.88160 | 25496 ft | 465 kts | 134° |
| 2026-05-04 12:42 | 51.55742 | -0.83905 | 25761 ft | 471 kts | 119° |
| 2026-05-04 12:42 | 51.54438 | -0.79042 | 26074 ft | 474 kts | 115° |
| 2026-05-04 12:42 | 51.53218 | -0.74123 | 26392 ft | 474 kts | 114° |
| 2026-05-04 12:43 | 51.52006 | -0.69192 | 26770 ft | 473 kts | 114° |
| 2026-05-04 12:43 | 51.50809 | -0.64374 | 27167 ft | 470 kts | 115° |
| 2026-05-04 12:43 | 51.49568 | -0.59456 | 27560 ft | 469 kts | 115° |
| 2026-05-04 12:43 | 51.48331 | -0.54624 | 27922 ft | 468 kts | 116° |
| 2026-05-04 12:44 | 51.47102 | -0.49868 | 28261 ft | 467 kts | 116° |
| 2026-05-04 12:44 | 51.45839 | -0.45007 | 28642 ft | 466 kts | 116° |
| 2026-05-04 12:44 | 51.44593 | -0.40223 | 29029 ft | 464 kts | 116° |
| 2026-05-04 12:44 | 51.43363 | -0.35509 | 29385 ft | 463 kts | 116° |
| 2026-05-04 12:45 | 51.42119 | -0.30750 | 29744 ft | 462 kts | 117° |
| 2026-05-04 12:45 | 51.40884 | -0.26034 | 30094 ft | 461 kts | 117° |
| 2026-05-04 12:45 | 51.39643 | -0.21298 | 30403 ft | 460 kts | 117° |
| 2026-05-04 12:45 | 51.38402 | -0.16576 | 30667 ft | 460 kts | 117° |
| 2026-05-04 12:46 | 51.37159 | -0.11856 | 30921 ft | 460 kts | 117° |
| 2026-05-04 12:46 | 51.35921 | -0.07156 | 31192 ft | 459 kts | 116° |
| 2026-05-04 12:46 | 51.34677 | -0.02449 | 31469 ft | 458 kts | 116° |
| 2026-05-04 12:46 | 51.33525 | 0.01937 | 31710 ft | 459 kts | 115° |
| 2026-05-04 12:47 | 51.32568 | 0.06821 | 31867 ft | 464 kts | 105° |
| 2026-05-04 12:47 | 51.31958 | 0.11879 | 32192 ft | 462 kts | 104° |
| 2026-05-04 12:47 | 51.31399 | 0.16868 | 32489 ft | 461 kts | 104° |
| 2026-05-04 12:47 | 51.31009 | 0.20270 | 32643 ft | 460 kts | 104° |
| 2026-05-04 12:48 | 51.30238 | 0.26666 | 32928 ft | 460 kts | 105° |
| 2026-05-04 12:48 | 51.28981 | 0.36735 | 32969 ft | 462 kts | 105° |
| 2026-05-04 12:49 | 51.27765 | 0.46800 | 32961 ft | 459 kts | 104° |
| 2026-05-04 12:49 | 51.26552 | 0.56773 | 32967 ft | 456 kts | 105° |
| 2026-05-04 12:50 | 51.25271 | 0.66674 | 32979 ft | 454 kts | 106° |
| 2026-05-04 12:50 | 51.23981 | 0.76467 | 32990 ft | 454 kts | 105° |
| 2026-05-04 12:51 | 51.22742 | 0.86372 | 33000 ft | 455 kts | 105° |
| 2026-05-04 12:51 | 51.21493 | 0.96279 | 33003 ft | 456 kts | 105° |
| 2026-05-04 12:52 | 51.20217 | 1.06211 | 33019 ft | 458 kts | 106° |
| 2026-05-04 12:52 | 51.18907 | 1.16183 | 33018 ft | 460 kts | 106° |
| 2026-05-04 12:53 | 51.17596 | 1.26120 | 33018 ft | 461 kts | 106° |
| 2026-05-04 12:53 | 51.16285 | 1.36153 | 33019 ft | 464 kts | 104° |
| 2026-05-04 12:54 | 51.15653 | 1.46440 | 33007 ft | 468 kts | 98° |
| 2026-05-04 12:54 | 51.15249 | 1.56804 | 33021 ft | 468 kts | 98° |
| 2026-05-04 12:55 | 51.14799 | 1.66838 | 33017 ft | 468 kts | 98° |
| 2026-05-04 12:55 | 51.14283 | 1.77170 | 33019 ft | 468 kts | 99° |
| 2026-05-04 12:56 | 51.13754 | 1.87437 | 33018 ft | 467 kts | 99° |
| 2026-05-04 12:56 | 51.13306 | 1.96073 | 33016 ft | 466 kts | 99° |
| 2026-05-04 12:57 | 51.12763 | 2.06373 | 33017 ft | 466 kts | 99° |
| 2026-05-04 12:57 | 51.12214 | 2.16642 | 33020 ft | 466 kts | 99° |
| 2026-05-04 12:58 | 51.11656 | 2.26921 | 33017 ft | 466 kts | 99° |
| 2026-05-04 12:58 | 51.11093 | 2.37128 | 32990 ft | 466 kts | 100° |
| 2026-05-04 12:59 | 51.10515 | 2.47449 | 33003 ft | 465 kts | 100° |
| 2026-05-04 12:59 | 51.09936 | 2.57646 | 33010 ft | 466 kts | 100° |
| 2026-05-04 13:00 | 51.08689 | 2.67645 | 33001 ft | 455 kts | 115° |
| 2026-05-04 13:00 | 51.05970 | 2.76610 | 33007 ft | 450 kts | 123° |
| 2026-05-04 13:01 | 51.03070 | 2.85427 | 33000 ft | 450 kts | 123° |
| 2026-05-04 13:01 | 51.00188 | 2.94272 | 33010 ft | 451 kts | 123° |
| 2026-05-04 13:02 | 50.97317 | 3.03143 | 32998 ft | 452 kts | 123° |
| 2026-05-04 13:02 | 50.94447 | 3.12013 | 33006 ft | 452 kts | 123° |
| 2026-05-04 13:03 | 50.91582 | 3.20840 | 32978 ft | 453 kts | 123° |
| 2026-05-04 13:03 | 50.88687 | 3.29725 | 32956 ft | 453 kts | 123° |
| 2026-05-04 13:04 | 50.85788 | 3.38589 | 32978 ft | 453 kts | 123° |
| 2026-05-04 13:04 | 50.82879 | 3.47449 | 32978 ft | 453 kts | 123° |
| 2026-05-04 13:05 | 50.79966 | 3.56292 | 32983 ft | 453 kts | 123° |
| 2026-05-04 13:05 | 50.77046 | 3.65125 | 32977 ft | 453 kts | 123° |
| 2026-05-04 13:06 | 50.74138 | 3.73889 | 32979 ft | 453 kts | 123° |
| 2026-05-04 13:06 | 50.71209 | 3.82688 | 32973 ft | 453 kts | 123° |
| 2026-05-04 13:07 | 50.68270 | 3.91484 | 32983 ft | 453 kts | 123° |
| 2026-05-04 13:07 | 50.65341 | 4.00220 | 32975 ft | 454 kts | 123° |
| 2026-05-04 13:08 | 50.62369 | 4.09052 | 32981 ft | 454 kts | 123° |
| 2026-05-04 13:08 | 50.59420 | 4.17788 | 32992 ft | 455 kts | 124° |
| 2026-05-04 13:09 | 50.56436 | 4.26593 | 32984 ft | 455 kts | 123° |
| 2026-05-04 13:09 | 50.53469 | 4.35322 | 32993 ft | 454 kts | 124° |
| 2026-05-04 13:10 | 50.50487 | 4.44067 | 32993 ft | 453 kts | 124° |
| 2026-05-04 13:10 | 50.47510 | 4.52762 | 32986 ft | 452 kts | 124° |
| 2026-05-04 13:11 | 50.44520 | 4.61466 | 33005 ft | 452 kts | 124° |
| 2026-05-04 13:11 | 50.41519 | 4.70167 | 32974 ft | 456 kts | 124° |
| 2026-05-04 13:12 | 50.38493 | 4.78914 | 32973 ft | 455 kts | 124° |
| 2026-05-04 13:12 | 50.35474 | 4.87617 | 32971 ft | 454 kts | 124° |
| 2026-05-04 13:13 | 50.32475 | 4.96231 | 32981 ft | 452 kts | 124° |
| 2026-05-04 13:13 | 50.29459 | 5.04861 | 32997 ft | 452 kts | 124° |
| 2026-05-04 13:14 | 50.26415 | 5.13535 | 32973 ft | 457 kts | 124° |
| 2026-05-04 13:14 | 50.23342 | 5.22267 | 32980 ft | 459 kts | 124° |
| 2026-05-04 13:15 | 50.20256 | 5.31014 | 32976 ft | 460 kts | 124° |
| 2026-05-04 13:15 | 50.17182 | 5.39697 | 32976 ft | 458 kts | 124° |
| 2026-05-04 13:16 | 50.14107 | 5.48355 | 32985 ft | 455 kts | 125° |
| 2026-05-04 13:16 | 50.11031 | 5.56976 | 32989 ft | 455 kts | 124° |
| 2026-05-04 13:17 | 50.07947 | 5.65593 | 33000 ft | 455 kts | 124° |
| 2026-05-04 13:17 | 50.04870 | 5.74162 | 32983 ft | 457 kts | 124° |
| 2026-05-04 13:18 | 50.01765 | 5.82787 | 32978 ft | 456 kts | 125° |
| 2026-05-04 13:18 | 49.98669 | 5.91364 | 32996 ft | 454 kts | 125° |
| 2026-05-04 13:19 | 49.95534 | 5.99856 | 32997 ft | 450 kts | 127° |
| 2026-05-04 13:19 | 49.92083 | 6.07949 | 33014 ft | 448 kts | 130° |
| 2026-05-04 13:20 | 49.88540 | 6.15976 | 33013 ft | 452 kts | 129° |
| 2026-05-04 13:20 | 49.85015 | 6.24056 | 33001 ft | 453 kts | 129° |
| 2026-05-04 13:21 | 49.81522 | 6.32111 | 33013 ft | 453 kts | 129° |
| 2026-05-04 13:21 | 49.78001 | 6.40212 | 33004 ft | 453 kts | 129° |
| 2026-05-04 13:22 | 49.74471 | 6.48305 | 33011 ft | 454 kts | 129° |
| 2026-05-04 13:22 | 49.71115 | 6.56630 | 32992 ft | 459 kts | 123° |
| 2026-05-04 13:23 | 49.68138 | 6.65395 | 33003 ft | 462 kts | 122° |
| 2026-05-04 13:23 | 49.65180 | 6.74221 | 32990 ft | 463 kts | 123° |
| 2026-05-04 13:24 | 49.62175 | 6.83016 | 32980 ft | 463 kts | 123° |
| 2026-05-04 13:24 | 49.59153 | 6.91741 | 32995 ft | 464 kts | 123° |
| 2026-05-04 13:25 | 49.54559 | 7.04907 | 32995 ft | 465 kts | 123° |
| 2026-05-04 13:25 | 49.51482 | 7.13693 | 32999 ft | 465 kts | 123° |
| 2026-05-04 13:26 | 49.48406 | 7.22451 | 32987 ft | 465 kts | 123° |
| 2026-05-04 13:26 | 49.45340 | 7.31151 | 32999 ft | 465 kts | 123° |
| 2026-05-04 13:27 | 49.42252 | 7.39885 | 33000 ft | 464 kts | 123° |
| 2026-05-04 13:27 | 49.39155 | 7.48612 | 32994 ft | 465 kts | 123° |
| 2026-05-04 13:28 | 49.36060 | 7.57303 | 33003 ft | 464 kts | 124° |
| 2026-05-04 13:28 | 49.32953 | 7.66001 | 32998 ft | 465 kts | 124° |
| 2026-05-04 13:29 | 49.29841 | 7.74681 | 33002 ft | 465 kts | 124° |
| 2026-05-04 13:29 | 49.26715 | 7.83374 | 32991 ft | 466 kts | 124° |
| 2026-05-04 13:30 | 49.23580 | 7.92061 | 33003 ft | 466 kts | 124° |
| 2026-05-04 13:30 | 49.20435 | 8.00750 | 32964 ft | 466 kts | 124° |
| 2026-05-04 13:31 | 49.17305 | 8.09365 | 32992 ft | 467 kts | 124° |
| 2026-05-04 13:31 | 49.14138 | 8.18053 | 32991 ft | 468 kts | 124° |
| 2026-05-04 13:32 | 49.10959 | 8.26750 | 32995 ft | 470 kts | 124° |
| 2026-05-04 13:32 | 49.07755 | 8.35484 | 32986 ft | 472 kts | 124° |
| 2026-05-04 13:33 | 49.04539 | 8.44225 | 32981 ft | 472 kts | 124° |
| 2026-05-04 13:33 | 49.01315 | 8.52957 | 32987 ft | 472 kts | 124° |
| 2026-05-04 13:34 | 48.97427 | 8.60738 | 32989 ft | 460 kts | 141° |
| 2026-05-04 13:34 | 48.92484 | 8.66812 | 32980 ft | 455 kts | 147° |
| 2026-05-04 13:35 | 48.84991 | 8.75685 | 32980 ft | 455 kts | 147° |
| 2026-05-04 13:36 | 48.80014 | 8.81644 | 32963 ft | 454 kts | 146° |
| 2026-05-04 13:36 | 48.75092 | 8.87548 | 32971 ft | 454 kts | 146° |
| 2026-05-04 13:37 | 48.70139 | 8.93476 | 32973 ft | 454 kts | 146° |
| 2026-05-04 13:37 | 48.65176 | 8.99398 | 32980 ft | 455 kts | 146° |
| 2026-05-04 13:38 | 48.60188 | 9.05333 | 32966 ft | 456 kts | 146° |
| 2026-05-04 13:38 | 48.55219 | 9.11231 | 32968 ft | 456 kts | 146° |
| 2026-05-04 13:39 | 48.50233 | 9.17134 | 32969 ft | 456 kts | 146° |
| 2026-05-04 13:39 | 48.45231 | 9.23040 | 32966 ft | 456 kts | 146° |
| 2026-05-04 13:40 | 48.40235 | 9.28926 | 32978 ft | 456 kts | 146° |
| 2026-05-04 13:40 | 48.35219 | 9.34819 | 32969 ft | 457 kts | 146° |
| 2026-05-04 13:41 | 48.30200 | 9.40703 | 32970 ft | 457 kts | 146° |
| 2026-05-04 13:41 | 48.25186 | 9.46576 | 32942 ft | 458 kts | 144° |
| 2026-05-04 13:42 | 48.17951 | 9.55878 | 32957 ft | 459 kts | 142° |
| 2026-05-04 13:42 | 48.13154 | 9.62169 | 32963 ft | 458 kts | 142° |
| 2026-05-04 13:43 | 48.09156 | 9.67354 | 32964 ft | 457 kts | 142° |
| 2026-05-04 13:43 | 48.04330 | 9.73569 | 32966 ft | 457 kts | 143° |
| 2026-05-04 13:44 | 47.99502 | 9.79766 | 32963 ft | 457 kts | 142° |
| 2026-05-04 13:44 | 47.94705 | 9.85910 | 32965 ft | 456 kts | 142° |
| 2026-05-04 13:45 | 47.89887 | 9.92070 | 32977 ft | 455 kts | 142° |
| 2026-05-04 13:45 | 47.85169 | 9.98374 | 32970 ft | 458 kts | 134° |
| 2026-05-04 13:46 | 47.81639 | 10.06310 | 32978 ft | 464 kts | 118° |
| 2026-05-04 13:46 | 47.78930 | 10.14955 | 32977 ft | 464 kts | 117° |
| 2026-05-04 13:47 | 47.76207 | 10.23675 | 32967 ft | 464 kts | 118° |
| 2026-05-04 13:47 | 47.73447 | 10.32343 | 32978 ft | 464 kts | 118° |
| 2026-05-04 13:48 | 47.70673 | 10.40953 | 32974 ft | 465 kts | 118° |
| 2026-05-04 13:48 | 47.67869 | 10.49608 | 32982 ft | 465 kts | 118° |
| 2026-05-04 13:49 | 47.65055 | 10.58270 | 32981 ft | 466 kts | 118° |
| 2026-05-04 13:49 | 47.62232 | 10.66934 | 32986 ft | 466 kts | 118° |
| 2026-05-04 13:50 | 47.59400 | 10.75597 | 32987 ft | 467 kts | 118° |
| 2026-05-04 13:50 | 47.56561 | 10.84251 | 32970 ft | 467 kts | 118° |
| 2026-05-04 13:51 | 47.53736 | 10.92833 | 32949 ft | 467 kts | 118° |
| 2026-05-04 13:51 | 47.50887 | 11.01462 | 32960 ft | 466 kts | 118° |
| 2026-05-04 13:52 | 47.46596 | 11.14401 | 32944 ft | 466 kts | 118° |
| 2026-05-04 13:53 | 47.43753 | 11.22939 | 32950 ft | 465 kts | 119° |
| 2026-05-04 13:53 | 47.40888 | 11.31513 | 32943 ft | 465 kts | 119° |
| 2026-05-04 13:54 | 47.36582 | 11.44347 | 32965 ft | 465 kts | 119° |
| 2026-05-04 13:55 | 47.32263 | 11.57160 | 32959 ft | 465 kts | 119° |
| 2026-05-04 13:55 | 47.27946 | 11.69903 | 32958 ft | 465 kts | 119° |
| 2026-05-04 13:56 | 47.25048 | 11.78424 | 32964 ft | 465 kts | 119° |
| 2026-05-04 13:57 | 47.20657 | 11.91166 | 32977 ft | 463 kts | 122° |
| 2026-05-04 13:58 | 47.13810 | 12.07149 | 32997 ft | 462 kts | 126° |
| 2026-05-04 13:58 | 47.08629 | 12.19053 | 33010 ft | 463 kts | 126° |
| 2026-05-04 13:59 | 47.05181 | 12.27050 | 33027 ft | 464 kts | 126° |
| 2026-05-04 14:00 | 46.99992 | 12.39064 | 33020 ft | 464 kts | 125° |
| 2026-05-04 14:00 | 46.94806 | 12.51010 | 33057 ft | 463 kts | 125° |
| 2026-05-04 14:01 | 46.91335 | 12.58974 | 33049 ft | 465 kts | 125° |
| 2026-05-04 14:02 | 46.86107 | 12.70926 | 33039 ft | 466 kts | 125° |
| 2026-05-04 14:02 | 46.82625 | 12.78861 | 33024 ft | 467 kts | 125° |
| 2026-05-04 14:03 | 46.79117 | 12.86829 | 33037 ft | 467 kts | 125° |
| 2026-05-04 14:03 | 46.75599 | 12.94797 | 33044 ft | 467 kts | 125° |
| 2026-05-04 14:04 | 46.70310 | 13.06737 | 33045 ft | 467 kts | 125° |
| 2026-05-04 14:04 | 46.66779 | 13.14679 | 33045 ft | 467 kts | 125° |
| 2026-05-04 14:05 | 46.61466 | 13.26586 | 33049 ft | 468 kts | 125° |
| 2026-05-04 14:06 | 46.57940 | 13.34466 | 33067 ft | 467 kts | 125° |
| 2026-05-04 14:06 | 46.54505 | 13.42486 | 33069 ft | 468 kts | 122° |
| 2026-05-04 14:07 | 46.51318 | 13.50759 | 33056 ft | 469 kts | 121° |
| 2026-05-04 14:07 | 46.48139 | 13.59099 | 33077 ft | 474 kts | 121° |
| 2026-05-04 14:08 | 46.44930 | 13.67401 | 33058 ft | 473 kts | 122° |
| 2026-05-04 14:08 | 46.41686 | 13.75702 | 33075 ft | 473 kts | 122° |
| 2026-05-04 14:09 | 46.36791 | 13.88158 | 33070 ft | 475 kts | 122° |
| 2026-05-04 14:10 | 46.31865 | 14.00640 | 33074 ft | 476 kts | 121° |
| 2026-05-04 14:10 | 46.28584 | 14.08924 | 33069 ft | 477 kts | 121° |
| 2026-05-04 14:11 | 46.25256 | 14.17302 | 33058 ft | 479 kts | 121° |
| 2026-05-04 14:11 | 46.20286 | 14.29767 | 33053 ft | 479 kts | 121° |
| 2026-05-04 14:12 | 46.16952 | 14.38097 | 33044 ft | 479 kts | 121° |
| 2026-05-04 14:13 | 46.11942 | 14.50567 | 33049 ft | 478 kts | 121° |
| 2026-05-04 14:13 | 46.08596 | 14.58863 | 33054 ft | 478 kts | 121° |
| 2026-05-04 14:14 | 46.05265 | 14.67100 | 33059 ft | 478 kts | 121° |
| 2026-05-04 14:14 | 46.00236 | 14.79487 | 33052 ft | 478 kts | 121° |
| 2026-05-04 14:15 | 45.93510 | 14.95967 | 33047 ft | 477 kts | 121° |
| 2026-05-04 14:16 | 45.88454 | 15.08291 | 33038 ft | 477 kts | 121° |
| 2026-05-04 14:17 | 45.83403 | 15.20553 | 33023 ft | 478 kts | 121° |
| 2026-05-04 14:18 | 45.78311 | 15.32861 | 33023 ft | 478 kts | 121° |
| 2026-05-04 14:19 | 45.70392 | 15.48110 | 33020 ft | 478 kts | 129° |
| 2026-05-04 14:19 | 45.66215 | 15.55504 | 33029 ft | 478 kts | 129° |
| 2026-05-04 14:20 | 45.62081 | 15.62930 | 33025 ft | 478 kts | 129° |
| 2026-05-04 14:20 | 45.57978 | 15.70341 | 33026 ft | 478 kts | 129° |
| 2026-05-04 14:21 | 45.51784 | 15.81504 | 33030 ft | 478 kts | 128° |
| 2026-05-04 14:21 | 45.47643 | 15.88937 | 33026 ft | 478 kts | 128° |
| 2026-05-04 14:22 | 45.43520 | 15.96317 | 33018 ft | 478 kts | 129° |
| 2026-05-04 14:22 | 45.39369 | 16.03726 | 33026 ft | 478 kts | 129° |
| 2026-05-04 14:23 | 45.33139 | 16.14811 | 33036 ft | 478 kts | 128° |
| 2026-05-04 14:24 | 45.28967 | 16.22209 | 33030 ft | 479 kts | 128° |
| 2026-05-04 14:24 | 45.24790 | 16.29599 | 33033 ft | 479 kts | 129° |
| 2026-05-04 14:25 | 45.20636 | 16.36929 | 33032 ft | 479 kts | 129° |
| 2026-05-04 14:25 | 45.14358 | 16.47973 | 33022 ft | 480 kts | 128° |
| 2026-05-04 14:26 | 45.10168 | 16.55319 | 33034 ft | 480 kts | 128° |
| 2026-05-04 14:26 | 45.05990 | 16.62631 | 33032 ft | 480 kts | 128° |
| 2026-05-04 14:27 | 45.01786 | 16.69975 | 33041 ft | 480 kts | 128° |
| 2026-05-04 14:27 | 44.97580 | 16.77303 | 33040 ft | 480 kts | 128° |
| 2026-05-04 14:28 | 44.93322 | 16.84577 | 33028 ft | 480 kts | 130° |
| 2026-05-04 14:28 | 44.88942 | 16.91715 | 33041 ft | 480 kts | 130° |
| 2026-05-04 14:29 | 44.80234 | 17.05944 | 33049 ft | 481 kts | 130° |
| 2026-05-04 14:30 | 44.75836 | 17.13063 | 33048 ft | 481 kts | 130° |
| 2026-05-04 14:31 | 44.69976 | 17.22535 | 33051 ft | 481 kts | 130° |
| 2026-05-04 14:32 | 44.61168 | 17.36747 | 33040 ft | 482 kts | 130° |
| 2026-05-04 14:32 | 44.56795 | 17.43876 | 33050 ft | 482 kts | 129° |
| 2026-05-04 14:33 | 44.52423 | 17.51002 | 33048 ft | 482 kts | 130° |
| 2026-05-04 14:33 | 44.48064 | 17.58078 | 33049 ft | 482 kts | 129° |
| 2026-05-04 14:34 | 44.43676 | 17.65179 | 33051 ft | 482 kts | 129° |
| 2026-05-04 14:34 | 44.39290 | 17.72259 | 33062 ft | 481 kts | 130° |
| 2026-05-04 14:35 | 44.34895 | 17.79334 | 33049 ft | 481 kts | 130° |
| 2026-05-04 14:35 | 44.30501 | 17.86393 | 33075 ft | 481 kts | 130° |
| 2026-05-04 14:36 | 44.26096 | 17.93451 | 33060 ft | 481 kts | 130° |
| 2026-05-04 14:36 | 44.21715 | 18.00456 | 33055 ft | 482 kts | 130° |
| 2026-05-04 14:37 | 44.17295 | 18.07472 | 33057 ft | 482 kts | 130° |
| 2026-05-04 14:37 | 44.12858 | 18.14467 | 33067 ft | 481 kts | 130° |
| 2026-05-04 14:38 | 44.08421 | 18.21452 | 33057 ft | 481 kts | 130° |
| 2026-05-04 14:38 | 44.03979 | 18.28434 | 33064 ft | 482 kts | 130° |
| 2026-05-04 14:39 | 43.99522 | 18.35423 | 33052 ft | 483 kts | 130° |
| 2026-05-04 14:39 | 43.95061 | 18.42404 | 33052 ft | 483 kts | 130° |
| 2026-05-04 14:40 | 43.88099 | 18.52444 | 33048 ft | 484 kts | 135° |
| 2026-05-04 14:40 | 43.83241 | 18.58911 | 33052 ft | 484 kts | 135° |
| 2026-05-04 14:41 | 43.78376 | 18.65416 | 33074 ft | 485 kts | 134° |
| 2026-05-04 14:42 | 43.68721 | 18.78441 | 33074 ft | 487 kts | 134° |
| 2026-05-04 14:42 | 43.63875 | 18.84968 | 33082 ft | 487 kts | 134° |
| 2026-05-04 14:43 | 43.59016 | 18.91495 | 33086 ft | 487 kts | 134° |
| 2026-05-04 14:43 | 43.54148 | 18.98018 | 33076 ft | 488 kts | 134° |
| 2026-05-04 14:44 | 43.49275 | 19.04530 | 33086 ft | 488 kts | 134° |
| 2026-05-04 14:44 | 43.44415 | 19.11009 | 33077 ft | 489 kts | 134° |
| 2026-05-04 14:45 | 43.39518 | 19.17523 | 33096 ft | 490 kts | 134° |
| 2026-05-04 14:45 | 43.34617 | 19.24027 | 33090 ft | 490 kts | 134° |
| 2026-05-04 14:46 | 43.29707 | 19.30527 | 33079 ft | 490 kts | 134° |
| 2026-05-04 14:46 | 43.24785 | 19.37027 | 33080 ft | 490 kts | 134° |
| 2026-05-04 14:47 | 43.19893 | 19.43473 | 33084 ft | 491 kts | 134° |
| 2026-05-04 14:47 | 43.14963 | 19.49954 | 33094 ft | 491 kts | 134° |
| 2026-05-04 14:48 | 43.10025 | 19.56430 | 33087 ft | 491 kts | 134° |
| 2026-05-04 14:48 | 43.05080 | 19.62900 | 33088 ft | 491 kts | 134° |
| 2026-05-04 14:49 | 43.00132 | 19.69359 | 33095 ft | 491 kts | 134° |
| 2026-05-04 14:49 | 42.95226 | 19.75748 | 33090 ft | 491 kts | 134° |
| 2026-05-04 14:50 | 42.90284 | 19.82171 | 33115 ft | 491 kts | 134° |
| 2026-05-04 14:50 | 42.85341 | 19.88579 | 33101 ft | 491 kts | 134° |
| 2026-05-04 14:51 | 42.80415 | 19.94953 | 33112 ft | 491 kts | 134° |
| 2026-05-04 14:51 | 42.75449 | 20.01364 | 33117 ft | 491 kts | 134° |
| 2026-05-04 14:52 | 42.70910 | 20.08262 | 33125 ft | 488 kts | 126° |
| 2026-05-04 14:52 | 42.66657 | 20.15470 | 33143 ft | 489 kts | 125° |
| 2026-05-04 14:53 | 42.62382 | 20.22669 | 33130 ft | 489 kts | 126° |
| 2026-05-04 14:53 | 42.58093 | 20.29758 | 33124 ft | 489 kts | 126° |
| 2026-05-04 14:54 | 42.53751 | 20.36874 | 33117 ft | 489 kts | 126° |
| 2026-05-04 14:54 | 42.49394 | 20.43993 | 33116 ft | 490 kts | 126° |
| 2026-05-04 14:55 | 42.45027 | 20.51117 | 33128 ft | 491 kts | 126° |
| 2026-05-04 14:55 | 42.40679 | 20.58196 | 33131 ft | 492 kts | 126° |
| 2026-05-04 14:56 | 42.36302 | 20.65306 | 33128 ft | 492 kts | 126° |
| 2026-05-04 14:56 | 42.31915 | 20.72415 | 33119 ft | 492 kts | 126° |
| 2026-05-04 14:57 | 42.27519 | 20.79521 | 33127 ft | 492 kts | 126° |
| 2026-05-04 14:57 | 42.23119 | 20.86616 | 33133 ft | 491 kts | 126° |
| 2026-05-04 14:58 | 42.18756 | 20.93636 | 33149 ft | 491 kts | 126° |
| 2026-05-04 14:58 | 42.14364 | 21.00689 | 33131 ft | 490 kts | 126° |
| 2026-05-04 14:59 | 42.09905 | 21.07604 | 33126 ft | 491 kts | 131° |
| 2026-05-04 15:00 | 42.02434 | 21.17044 | 33136 ft | 494 kts | 134° |
| 2026-05-04 15:00 | 41.97366 | 21.23293 | 33122 ft | 494 kts | 134° |
| 2026-05-04 15:01 | 41.89830 | 21.32746 | 33117 ft | 493 kts | 133° |